In Rescue
 
Open Full Screen Window  High Contrast Mode
Wind Gusting 00 knots
07
May 25, 2022 10:57 PM EDT
Weather Information
Wind Direction
  110 °
Wind Speed
  07 kt (8 mph)
Wind Gust
  00 kt (0 mph)
Altimeter
29.90 in
Visibility
10 SM
Temperature
19° C
66° F
Dewpoint
16° C
61° F
Humidity
83%
Sky Condition
Scattered @ 12,000 ft
Scattered @ 4,600 ft
Scattered @ 4,000 ft
VFR

METAR KAMN 260257Z AUTO 11007KT 10SM SCT040 SCT046 SCT120 19/16 A2990 RMK AO2 T01880161

FAA Disclaimer: The data displayed is for advisory purposes only and is not to be used for flight planning or operations.